Time;durP1;ratioP1;P1;durP2;ratioP2;P2;SDS_P1;SDS_P2;PMS_P1;PMS_P2;Temp;Humidity;BMP_temperature;BMP_pressure;BME280_temperature;BME280_humidity;BME280_pressure;Samples;Min_cycle;Max_cycle;Signal;HPM_P1;HPM_P2
2022/09/23 00:20:01;;;;;;;3.17;2.88;;;19.50;56.70;;;;;;4721890;30;20221;-84
2022/09/23 00:22:47;;;;;;;3.63;2.97;;;19.50;56.60;;;;;;4736808;30;20196;-84
2022/09/23 00:29:02;;;;;;;3.15;2.65;;;19.40;56.60;;;;;;4735243;30;20213;-84
2022/09/23 00:45:39;;;;;;;2.80;2.60;;;19.50;56.60;;;;;;4842458;29;20314;-84
2022/09/23 00:52:12;;;;;;;3.45;3.10;;;19.50;56.50;;;;;;4914740;29;20186;-85
2022/09/23 01:02:50;;;;;;;;;;;;;;;;;;;;;
2022/09/23 01:05:51;;;;;;;2.72;2.53;;;19.50;56.60;;;;;;4907915;29;20201;-84
2022/09/23 01:09:06;;;;;;;3.35;3.05;;;19.50;56.60;;;;;;4878814;29;20247;-85
2022/09/23 01:12:01;;;;;;;3.03;2.72;;;19.50;56.60;;;;;;4913971;29;20711;-86
2022/09/23 01:29:05;;;;;;;3.38;3.08;;;19.40;56.60;;;;;;4920531;29;20629;-84
2022/09/23 01:49:16;;;;;;;3.20;2.90;;;19.40;56.80;;;;;;4957106;29;20185;-84
2022/09/23 02:48:59;;;;;;;3.20;2.90;;;19.40;56.90;;;;;;5055880;28;20174;-85
2022/09/23 02:52:23;;;;;;;3.20;2.90;;;19.40;57.00;;;;;;5053999;28;20171;-85
2022/09/23 02:59:28;;;;;;;3.17;2.85;;;19.40;56.90;;;;;;5034246;28;20249;-84
2022/09/23 03:02:54;;;;;;;2.90;2.45;;;19.40;57.00;;;;;;4984046;28;20198;-84
2022/09/23 03:20:25;;;;;;;3.03;2.60;;;19.40;57.00;;;;;;4880350;29;20184;-85
2022/09/23 03:23:30;;;;;;;3.30;3.00;;;19.30;57.00;;;;;;4793632;29;20221;-84
2022/09/23 03:29:58;;;;;;;3.13;2.83;;;19.30;57.10;;;;;;4862544;29;20177;-85
2022/09/23 05:09:01;;;;;;;2.38;2.17;;;19.20;57.40;;;;;;5074297;28;20571;-84
2022/09/23 05:18:44;;;;;;;2.08;1.90;;;19.30;57.80;;;;;;5055618;28;20220;-84
2022/09/23 05:21:35;;;;;;;2.00;1.90;;;19.20;57.90;;;;;;5014913;28;20215;-84
2022/09/23 05:24:25;;;;;;;2.40;2.20;;;19.30;58.10;;;;;;4962443;29;20189;-84
2022/09/23 05:27:06;;;;;;;1.92;1.83;;;19.30;58.20;;;;;;4937229;29;20246;-84
2022/09/23 05:30:27;;;;;;;1.95;1.80;;;19.30;58.20;;;;;;4907441;29;20226;-84
2022/09/23 05:33:13;;;;;;;2.10;1.95;;;19.20;58.10;;;;;;4934344;29;20190;-84
2022/09/23 05:36:21;;;;;;;1.88;1.77;;;19.30;58.10;;;;;;4900423;29;20191;-85
2022/09/23 05:38:48;;;;;;;1.90;1.80;;;19.30;58.20;;;;;;4899909;29;20210;-85
2022/09/23 05:41:21;;;;;;;2.25;2.08;;;19.40;58.20;;;;;;4881170;29;20194;-84
2022/09/23 05:44:19;;;;;;;2.17;1.98;;;19.30;58.10;;;;;;4902911;29;20195;-84
2022/09/23 05:46:52;;;;;;;1.90;1.80;;;19.30;58.10;;;;;;4891223;29;20211;-84
2022/09/23 05:52:57;;;;;;;2.20;2.00;;;19.30;58.20;;;;;;4936902;29;20215;-84
2022/09/23 05:56:03;;;;;;;2.05;1.90;;;19.30;58.20;;;;;;4904223;29;20654;-83
2022/09/23 05:59:13;;;;;;;2.10;1.90;;;19.40;58.10;;;;;;4948273;29;20181;-84
2022/09/23 06:01:47;;;;;;;2.05;1.90;;;19.40;58.20;;;;;;4959879;29;20233;-84
2022/09/23 06:04:34;;;;;;;1.83;1.73;;;19.40;58.20;;;;;;4960239;29;20145;-84
2022/09/23 06:07:00;;;;;;;2.30;2.10;;;19.40;58.10;;;;;;4944243;28;20227;-84
2022/09/23 06:09:28;;;;;;;2.10;1.88;;;19.40;58.20;;;;;;4920829;29;20206;-84
2022/09/23 06:12:10;;;;;;;2.33;2.03;;;19.40;58.30;;;;;;4900835;29;20191;-84
2022/09/23 06:14:42;;;;;;;5.57;2.22;;;19.40;58.30;;;;;;4862598;29;20192;-83
2022/09/23 06:17:08;;;;;;;5.50;2.08;;;19.40;58.20;;;;;;4868791;29;20625;-82
2022/09/23 06:19:35;;;;;;;5.75;2.83;;;19.40;58.40;;;;;;4857583;29;20208;-80
2022/09/23 06:22:03;;;;;;;3.65;2.60;;;19.40;58.40;;;;;;4843716;29;20220;-81
2022/09/23 06:24:33;;;;;;;3.15;1.85;;;19.40;58.50;;;;;;4845561;29;20208;-80
2022/09/23 06:27:06;;;;;;;7.10;2.00;;;19.40;58.50;;;;;;4867347;29;20210;-80
2022/09/23 06:29:33;;;;;;;5.72;2.40;;;19.40;58.50;;;;;;4897413;29;20209;-81
2022/09/23 06:32:00;;;;;;;2.20;2.00;;;19.30;58.40;;;;;;4881421;29;20190;-80
2022/09/23 06:34:27;;;;;;;2.17;1.98;;;19.40;58.60;;;;;;4881506;29;20186;-80
2022/09/23 06:36:57;;;;;;;2.30;2.10;;;19.40;58.60;;;;;;4896331;29;20260;-81
2022/09/23 06:39:28;;;;;;;2.03;1.85;;;19.40;58.60;;;;;;4883406;29;20646;-81
2022/09/23 06:41:54;;;;;;;2.00;1.80;;;19.40;58.60;;;;;;4954190;28;20217;-81
2022/09/23 06:44:27;;;;;;;2.10;1.90;;;19.30;58.60;;;;;;4973670;28;20227;-80
2022/09/23 06:46:53;;;;;;;2.10;1.90;;;19.30;58.60;;;;;;5045973;28;20195;-80
2022/09/23 06:49:21;;;;;;;2.60;1.98;;;19.40;58.70;;;;;;5013637;28;20190;-80
2022/09/23 06:51:49;;;;;;;2.15;1.95;;;19.40;58.90;;;;;;5014280;28;20269;-81
2022/09/23 06:54:17;;;;;;;2.40;1.85;;;19.40;58.90;;;;;;5045250;28;20151;-80
2022/09/23 06:56:46;;;;;;;2.38;1.70;;;19.40;59.00;;;;;;5013177;28;20188;-82
2022/09/23 06:59:15;;;;;;;4.38;1.95;;;19.40;59.00;;;;;;5046141;28;20159;-79
2022/09/23 07:01:44;;;;;;;2.92;1.88;;;19.40;59.00;;;;;;5014338;28;20249;-79
2022/09/23 07:04:17;;;;;;;2.30;2.00;;;19.40;59.00;;;;;;5030332;28;20155;-80
2022/09/23 07:06:43;;;;;;;3.03;1.90;;;19.40;59.00;;;;;;5011991;28;20305;-79
2022/09/23 07:09:11;;;;;;;2.20;2.00;;;19.40;58.90;;;;;;5013227;28;20170;-79
2022/09/23 07:11:40;;;;;;;4.63;1.92;;;19.40;58.80;;;;;;4979952;28;20187;-79
2022/09/23 07:14:10;;;;;;;3.58;1.90;;;19.40;58.80;;;;;;4996348;28;20182;-78
2022/09/23 07:16:40;;;;;;;3.22;1.88;;;19.40;58.90;;;;;;4980625;28;20181;-80
2022/09/23 07:19:08;;;;;;;2.50;1.80;;;19.40;58.90;;;;;;4981083;28;20568;-80
2022/09/23 07:21:38;;;;;;;1.80;1.70;;;19.40;59.10;;;;;;4996620;28;20209;-79
2022/09/23 07:24:10;;;;;;;2.15;1.95;;;19.40;59.00;;;;;;4963832;28;20648;-79
2022/09/23 07:26:42;;;;;;;2.97;1.88;;;19.40;59.00;;;;;;4963548;28;20293;-80
2022/09/23 07:29:14;;;;;;;3.17;2.03;;;19.40;59.00;;;;;;4980653;28;20186;-79
2022/09/23 07:31:48;;;;;;;1.90;1.80;;;19.50;59.00;;;;;;4980357;28;20192;-80
2022/09/23 07:34:15;;;;;;;2.42;1.90;;;19.40;59.00;;;;;;4965240;28;20183;-80
2022/09/23 07:36:57;;;;;;;2.10;1.90;;;19.50;58.80;;;;;;4996851;28;20190;-80
2022/09/23 07:39:29;;;;;;;2.25;1.80;;;19.50;58.80;;;;;;4967279;28;20213;-80
2022/09/23 07:42:04;;;;;;;1.95;1.80;;;19.50;59.10;;;;;;4981297;28;20205;-79
2022/09/23 07:44:31;;;;;;;2.17;1.80;;;19.50;58.70;;;;;;4997157;28;20182;-81
2022/09/23 07:46:58;;;;;;;1.90;1.80;;;19.50;58.80;;;;;;4964462;28;20226;-81
2022/09/23 07:49:29;;;;;;;1.95;1.60;;;19.50;59.10;;;;;;4964760;28;20174;-81
2022/09/23 07:52:01;;;;;;;2.10;1.90;;;19.50;59.10;;;;;;4963824;28;20269;-80
2022/09/23 07:54:29;;;;;;;1.77;1.67;;;19.50;59.30;;;;;;5011167;28;20221;-80
2022/09/23 07:56:59;;;;;;;2.47;1.88;;;19.50;59.20;;;;;;4995587;28;20190;-80
2022/09/23 07:59:26;;;;;;;4.28;1.90;;;19.50;59.10;;;;;;4979733;28;20174;-79
2022/09/23 08:01:58;;;;;;;2.00;1.60;;;19.50;58.90;;;;;;5028772;28;20519;-79
2022/09/23 08:04:28;;;;;;;8.55;2.22;;;19.50;59.00;;;;;;4978903;28;20186;-80
2022/09/23 08:06:55;;;;;;;3.45;1.92;;;19.50;59.10;;;;;;5032223;28;20704;-80
2022/09/23 08:09:24;;;;;;;2.15;1.95;;;19.50;59.10;;;;;;5000525;28;20174;-80
2022/09/23 08:11:50;;;;;;;2.38;2.00;;;19.60;59.00;;;;;;5032799;28;20151;-80
2022/09/23 08:14:17;;;;;;;4.38;2.10;;;19.60;59.00;;;;;;5015910;28;20175;-80
2022/09/23 08:16:47;;;;;;;2.33;1.70;;;19.50;59.10;;;;;;5016771;28;20185;-80
2022/09/23 08:19:13;;;;;;;2.50;2.30;;;19.50;58.90;;;;;;4999344;28;20277;-80
2022/09/23 08:21:46;;;;;;;2.10;2.00;;;19.60;59.20;;;;;;5016047;28;20225;-80
2022/09/23 08:24:19;;;;;;;2.22;2.03;;;19.60;59.10;;;;;;4999459;28;20515;-80
2022/09/23 08:26:48;;;;;;;2.28;1.98;;;19.60;59.00;;;;;;4983319;28;20293;-80
2022/09/23 08:29:20;;;;;;;3.92;2.20;;;19.60;59.10;;;;;;5015938;28;20181;-80
2022/09/23 08:31:46;;;;;;;2.70;2.15;;;19.60;59.20;;;;;;4966929;28;20179;-80
2022/09/23 08:34:17;;;;;;;2.33;1.90;;;19.50;59.40;;;;;;5015587;28;20240;-80
2022/09/23 08:36:47;;;;;;;2.20;2.00;;;19.50;59.40;;;;;;4998128;28;20188;-80
2022/09/23 08:39:14;;;;;;;2.10;1.90;;;19.50;59.30;;;;;;4982500;28;20186;-80
2022/09/23 08:42:11;;;;;;;2.65;2.25;;;19.50;60.10;;;;;;5032084;28;20184;-80
2022/09/23 08:44:42;;;;;;;2.10;1.90;;;19.60;59.40;;;;;;5034965;28;20159;-81
2022/09/23 08:47:16;;;;;;;2.40;2.20;;;19.50;59.40;;;;;;5031675;28;20292;-79
2022/09/23 08:50:04;;;;;;;1.80;1.70;;;19.50;59.60;;;;;;5049996;28;20173;-80
2022/09/23 08:52:34;;;;;;;2.20;2.00;;;19.50;59.40;;;;;;5049218;28;20154;-80
2022/09/23 08:55:01;;;;;;;2.30;2.10;;;19.50;59.50;;;;;;5032361;28;20155;-80
2022/09/23 08:58:00;;;;;;;2.85;2.10;;;19.50;59.60;;;;;;5015650;28;20265;-80
2022/09/23 09:00:32;;;;;;;2.45;2.15;;;19.50;59.60;;;;;;5020959;28;20253;-80
2022/09/23 09:02:58;;;;;;;2.10;1.90;;;19.50;59.60;;;;;;5031660;28;20155;-79
2022/09/23 09:05:26;;;;;;;2.05;1.92;;;19.50;59.60;;;;;;5015731;28;20194;-79
2022/09/23 09:07:57;;;;;;;2.60;2.10;;;19.50;59.50;;;;;;5037674;28;20225;-80
2022/09/23 09:10:32;;;;;;;2.20;2.00;;;19.50;59.70;;;;;;5048163;28;20151;-80
2022/09/23 09:13:11;;;;;;;2.00;1.80;;;19.50;59.60;;;;;;4999662;28;20192;-80
2022/09/23 09:15:47;;;;;;;2.20;2.00;;;19.50;59.60;;;;;;5048535;28;20162;-80
2022/09/23 09:18:20;;;;;;;3.35;2.40;;;19.60;59.70;;;;;;5014566;28;20186;-79
2022/09/23 09:21:07;;;;;;;1.92;1.83;;;19.50;59.70;;;;;;5013933;28;20250;-80
2022/09/23 09:23:50;;;;;;;2.53;2.22;;;19.50;59.70;;;;;;5015967;28;20175;-80
2022/09/23 09:26:31;;;;;;;2.33;2.13;;;19.50;59.80;;;;;;5017970;28;20210;-80
2022/09/23 09:29:12;;;;;;;7.22;2.25;;;19.50;59.70;;;;;;5048079;28;20256;-80
2022/09/23 09:31:46;;;;;;;2.28;2.08;;;19.50;59.70;;;;;;5049030;28;20263;-80
2022/09/23 09:34:34;;;;;;;2.15;1.95;;;19.60;59.80;;;;;;5013525;28;20189;-80
2022/09/23 09:37:22;;;;;;;2.20;2.00;;;19.60;59.70;;;;;;5048078;28;20170;-81
2022/09/23 09:39:48;;;;;;;2.63;2.30;;;19.50;59.60;;;;;;5046994;28;20182;-80
2022/09/23 09:42:25;;;;;;;2.30;2.10;;;19.60;59.60;;;;;;5047732;28;20147;-80
2022/09/23 09:44:57;;;;;;;3.13;2.58;;;19.50;59.60;;;;;;5000223;28;20214;-80
2022/09/23 09:47:47;;;;;;;2.30;2.10;;;19.50;59.70;;;;;;5031840;28;20675;-80
2022/09/23 09:50:40;;;;;;;2.58;2.38;;;19.60;59.60;;;;;;5033563;28;20176;-80
2022/09/23 09:53:30;;;;;;;2.40;2.20;;;19.60;59.70;;;;;;5032446;28;20240;-79
2022/09/23 09:55:59;;;;;;;2.53;2.33;;;19.60;59.60;;;;;;5047808;28;20163;-81
2022/09/23 09:58:45;;;;;;;2.65;2.30;;;19.60;59.80;;;;;;5045347;28;20177;-80
2022/09/23 10:01:59;;;;;;;3.03;2.40;;;19.60;59.70;;;;;;5013060;28;20553;-80
2022/09/23 10:04:53;;;;;;;2.15;1.95;;;19.50;59.70;;;;;;5027924;28;20274;-81
2022/09/23 10:08:13;;;;;;;2.42;2.10;;;19.60;59.70;;;;;;5026059;28;20253;-82
2022/09/23 10:18:12;;;;;;;2.30;2.10;;;19.60;59.60;;;;;;4956238;29;20229;-82
2022/09/23 10:21:33;;;;;;;3.10;2.28;;;19.60;59.70;;;;;;4948693;29;20190;-81
2022/09/23 10:24:23;;;;;;;2.63;2.10;;;19.60;59.60;;;;;;4930536;29;20186;-80
2022/09/23 10:27:33;;;;;;;2.42;2.22;;;19.60;59.50;;;;;;4916990;29;20306;-81
2022/09/23 10:34:10;;;;;;;2.47;2.28;;;19.60;59.50;;;;;;4945780;29;20195;-82
2022/09/23 10:47:34;;;;;;;2.55;2.25;;;19.60;59.50;;;;;;4934138;29;20216;-81
2022/09/23 10:50:44;;;;;;;2.63;2.05;;;19.60;59.40;;;;;;4909428;29;20186;-81
2022/09/23 10:53:40;;;;;;;4.30;2.40;;;19.60;59.30;;;;;;4946835;29;20234;-81
2022/09/23 11:07:28;;;;;;;2.20;2.00;;;19.70;58.90;;;;;;4872370;29;20215;-81
2022/09/23 11:29:05;;;;;;;2.25;2.05;;;19.70;57.80;;;;;;4944435;29;20185;-82
2022/09/23 11:53:44;;;;;;;2.40;1.95;;;19.80;56.60;;;;;;5026123;28;20206;-81
2022/09/23 11:57:05;;;;;;;;;;;;;;;;;;;;;
2022/09/23 12:14:13;;;;;;;1.90;1.80;;;19.70;55.30;;;;;;4837140;29;20241;-84
2022/09/23 14:43:22;;;;;;;3.50;1.85;;;19.90;52.70;;;;;;4858148;26;20227;-83
2022/09/23 14:49:33;;;;;;;2.90;1.55;;;19.90;52.70;;;;;;5024334;28;20522;-83
2022/09/23 14:52:47;;;;;;;1.80;1.70;;;19.90;52.70;;;;;;4952357;28;20192;-84
2022/09/23 14:59:36;;;;;;;2.08;1.38;;;19.90;52.80;;;;;;4943446;29;20205;-83
2022/09/23 15:10:39;;;;;;;3.58;1.77;;;19.90;52.90;;;;;;4941491;29;20238;-83
2022/09/23 15:19:51;;;;;;;1.52;1.42;;;19.90;52.60;;;;;;4948471;29;20166;-83
2022/09/23 15:23:25;;;;;;;1.52;1.42;;;20.00;52.50;;;;;;4870917;29;20183;-83
2022/09/23 15:26:34;;;;;;;1.30;1.20;;;19.90;52.40;;;;;;4877667;29;20170;-84
2022/09/23 15:33:23;;;;;;;;;;;;;;;;;;;;;
2022/09/23 15:36:21;;;;;;;1.90;1.50;;;19.90;52.10;;;;;;4961079;29;20185;-82
2022/09/23 15:39:42;;;;;;;1.70;1.60;;;20.00;52.00;;;;;;4927654;29;20182;-83
2022/09/23 15:42:43;;;;;;;1.33;1.23;;;19.90;51.80;;;;;;4931564;29;20320;-84
2022/09/23 15:45:41;;;;;;;1.02;1.00;;;20.00;51.80;;;;;;4874977;29;20180;-86
2022/09/23 15:48:37;;;;;;;;;;;;;;;;;;;;;
2022/09/23 16:02:14;;;;;;;1.40;1.30;;;20.00;51.10;;;;;;4678837;30;20192;-81
2022/09/23 16:26:24;;;;;;;2.22;1.40;;;20.00;51.40;;;;;;5304898;23;20249;-82
2022/09/23 16:32:05;;;;;;;3.33;1.35;;;20.00;51.30;;;;;;4922621;29;20189;-81
2022/09/23 16:35:10;;;;;;;4.35;1.58;;;20.00;51.40;;;;;;4912629;29;20198;-82
2022/09/23 16:37:47;;;;;;;1.80;1.55;;;20.00;51.70;;;;;;4878148;29;20224;-82
2022/09/23 16:40:58;;;;;;;4.88;1.85;;;20.00;51.70;;;;;;4808045;29;20250;-82
2022/09/23 16:44:15;;;;;;;;;;;;;;;;;;;;;
2022/09/23 16:47:12;;;;;;;1.77;1.40;;;20.00;51.70;;;;;;4744814;30;20204;-82
2022/09/23 17:04:07;;;;;;;2.97;1.70;;;20.00;52.00;;;;;;4752587;30;20185;-81
2022/09/23 17:10:34;;;;;;;2.00;1.40;;;20.00;52.10;;;;;;4858431;29;20187;-81
2022/09/23 17:13:31;;;;;;;2.88;1.90;;;20.00;52.30;;;;;;4839026;29;20729;-82
2022/09/23 17:16:26;;;;;;;1.73;1.60;;;20.00;52.40;;;;;;4823135;29;20251;-82
2022/09/23 17:19:29;;;;;;;4.78;1.83;;;19.90;52.50;;;;;;4787345;30;20220;-82
2022/09/23 17:22:29;;;;;;;2.95;1.77;;;19.90;52.50;;;;;;4818618;29;20182;-82
2022/09/23 17:25:37;;;;;;;3.22;1.60;;;19.90;52.70;;;;;;4829994;29;20222;-82
2022/09/23 17:28:36;;;;;;;3.25;1.55;;;19.90;52.80;;;;;;4765061;30;20248;-82
2022/09/23 17:31:28;;;;;;;2.60;1.83;;;19.90;52.90;;;;;;4751992;30;20192;-81
2022/09/23 17:34:18;;;;;;;1.75;1.65;;;19.90;53.10;;;;;;4716338;30;20201;-82
2022/09/23 18:36:13;;;;;;;2.20;2.00;;;19.80;55.10;;;;;;5050866;28;20165;-81
2022/09/23 18:39:11;;;;;;;;;;;;;;;;;;;;;
2022/09/23 18:45:57;;;;;;;1.95;1.80;;;19.90;55.40;;;;;;4964603;28;20188;-81
2022/09/23 18:52:20;;;;;;;2.30;2.10;;;19.80;55.60;;;;;;4928673;29;20267;-82
2022/09/23 18:59:18;;;;;;;2.40;2.20;;;19.80;55.80;;;;;;4890387;29;20184;-82
2022/09/23 19:05:45;;;;;;;2.30;2.10;;;19.80;55.90;;;;;;4947152;29;20182;-82
2022/09/23 19:12:28;;;;;;;2.30;2.10;;;19.80;56.10;;;;;;4797619;30;20191;-81
2022/09/23 19:25:46;;;;;;;2.67;2.47;;;19.70;56.40;;;;;;4688036;30;20241;-81
2022/09/23 19:28:44;;;;;;;2.50;2.28;;;19.70;56.40;;;;;;4691524;30;20696;-81
